Terminal Aerodrome Forecast
Issued by NWS Cleveland, OH

Home | Current Version | Previous Version | Graphics & Text | Print | Product List | Glossary On
Versions: 1 2 3 4 5 6 7 8 9 10 11 12 13 14 15 16 17 18 19 20 21 22 23 24 25 26 27 28 29 30 31 32 33 34 35 36 37
000
FTUS41 KCLE 212100 AAA
TAFCLE
TAF AMD
KCLE 212112Z 2121/2224 24010KT P6SM BKN150
     FM220300 22008KT P6SM OVC090
     FM220800 22010KT P6SM -SHRA BKN030
     FM221100 30012KT P6SM -SHRA OVC007
     FM221400 31015G25KT P6SM OVC015
     FM221800 31010G20KT P6SM BKN025=

USA.gov is the U.S. government's official web portal to all federal, state and local government web resources and services.